sensor_id;sensor_type;location;lat;lon;timestamp;P1;durP1;ratioP1;P2;durP2;ratioP2
41323;SDS011;27073;51.128;4.220;2023-04-24T00:00:54;23.17;;;16.48;;
41323;SDS011;27073;51.128;4.220;2023-04-24T00:03:26;23.67;;;17.88;;
41323;SDS011;27073;51.128;4.220;2023-04-24T00:05:53;26.05;;;18.77;;
41323;SDS011;27073;51.128;4.220;2023-04-24T00:08:19;24.15;;;20.52;;
41323;SDS011;27073;51.128;4.220;2023-04-24T00:10:45;30.08;;;21.88;;
41323;SDS011;27073;51.128;4.220;2023-04-24T00:13:11;28.38;;;20.60;;
41323;SDS011;27073;51.128;4.220;2023-04-24T00:15:37;25.52;;;21.25;;
41323;SDS011;27073;51.128;4.220;2023-04-24T00:18:03;26.17;;;20.83;;
41323;SDS011;27073;51.128;4.220;2023-04-24T00:20:29;24.55;;;21.70;;
41323;SDS011;27073;51.128;4.220;2023-04-24T00:22:55;25.92;;;19.95;;
41323;SDS011;27073;51.128;4.220;2023-04-24T00:25:21;29.33;;;20.25;;
41323;SDS011;27073;51.128;4.220;2023-04-24T00:27:47;24.63;;;19.30;;
41323;SDS011;27073;51.128;4.220;2023-04-24T00:30:12;23.58;;;19.98;;
41323;SDS011;27073;51.128;4.220;2023-04-24T00:32:38;25.20;;;19.15;;
41323;SDS011;27073;51.128;4.220;2023-04-24T00:35:04;23.65;;;18.95;;
41323;SDS011;27073;51.128;4.220;2023-04-24T00:37:31;25.67;;;18.73;;
41323;SDS011;27073;51.128;4.220;2023-04-24T00:39:57;22.05;;;17.77;;
41323;SDS011;27073;51.128;4.220;2023-04-24T00:42:23;22.27;;;19.55;;
41323;SDS011;27073;51.128;4.220;2023-04-24T00:44:49;21.90;;;17.58;;
41323;SDS011;27073;51.128;4.220;2023-04-24T00:47:16;23.00;;;18.63;;
41323;SDS011;27073;51.128;4.220;2023-04-24T00:49:42;20.65;;;16.48;;
41323;SDS011;27073;51.128;4.220;2023-04-24T00:52:07;21.08;;;17.60;;
41323;SDS011;27073;51.128;4.220;2023-04-24T00:54:34;21.00;;;17.38;;
41323;SDS011;27073;51.128;4.220;2023-04-24T00:57:01;18.48;;;15.77;;
41323;SDS011;27073;51.128;4.220;2023-04-24T00:59:28;21.83;;;16.88;;
41323;SDS011;27073;51.128;4.220;2023-04-24T01:01:54;21.90;;;18.60;;
41323;SDS011;27073;51.128;4.220;2023-04-24T01:04:20;21.58;;;17.75;;
41323;SDS011;27073;51.128;4.220;2023-04-24T01:06:47;24.00;;;17.38;;
41323;SDS011;27073;51.128;4.220;2023-04-24T01:09:15;23.15;;;16.33;;
41323;SDS011;27073;51.128;4.220;2023-04-24T01:11:42;20.77;;;15.68;;
41323;SDS011;27073;51.128;4.220;2023-04-24T01:14:10;22.75;;;16.58;;
41323;SDS011;27073;51.128;4.220;2023-04-24T01:16:36;19.00;;;15.40;;
41323;SDS011;27073;51.128;4.220;2023-04-24T01:19:03;16.02;;;13.02;;
41323;SDS011;27073;51.128;4.220;2023-04-24T01:21:31;22.98;;;13.88;;
41323;SDS011;27073;51.128;4.220;2023-04-24T01:26:27;17.85;;;11.25;;
41323;SDS011;27073;51.128;4.220;2023-04-24T01:28:53;14.30;;;11.95;;
41323;SDS011;27073;51.128;4.220;2023-04-24T01:31:19;11.10;;;9.80;;
41323;SDS011;27073;51.128;4.220;2023-04-24T01:33:45;14.85;;;10.57;;
41323;SDS011;27073;51.128;4.220;2023-04-24T01:36:12;14.57;;;11.15;;
41323;SDS011;27073;51.128;4.220;2023-04-24T01:38:38;15.35;;;11.90;;
41323;SDS011;27073;51.128;4.220;2023-04-24T01:41:04;16.10;;;12.10;;
41323;SDS011;27073;51.128;4.220;2023-04-24T01:43:30;14.07;;;10.65;;
41323;SDS011;27073;51.128;4.220;2023-04-24T01:45:57;16.17;;;11.57;;
41323;SDS011;27073;51.128;4.220;2023-04-24T01:48:22;12.27;;;10.27;;
41323;SDS011;27073;51.128;4.220;2023-04-24T01:50:48;12.70;;;11.10;;
41323;SDS011;27073;51.128;4.220;2023-04-24T01:53:14;13.13;;;10.68;;
41323;SDS011;27073;51.128;4.220;2023-04-24T01:55:41;13.80;;;10.68;;
41323;SDS011;27073;51.128;4.220;2023-04-24T01:58:06;13.05;;;10.45;;
41323;SDS011;27073;51.128;4.220;2023-04-24T02:00:32;12.23;;;10.80;;
41323;SDS011;27073;51.128;4.220;2023-04-24T02:02:58;13.00;;;10.75;;
41323;SDS011;27073;51.128;4.220;2023-04-24T02:05:25;13.25;;;11.93;;
41323;SDS011;27073;51.128;4.220;2023-04-24T02:07:51;12.43;;;11.23;;
41323;SDS011;27073;51.128;4.220;2023-04-24T02:10:17;13.75;;;12.35;;
41323;SDS011;27073;51.128;4.220;2023-04-24T02:12:43;13.85;;;12.52;;
41323;SDS011;27073;51.128;4.220;2023-04-24T02:15:09;13.63;;;12.23;;
41323;SDS011;27073;51.128;4.220;2023-04-24T02:17:36;14.05;;;12.75;;
41323;SDS011;27073;51.128;4.220;2023-04-24T02:20:03;15.85;;;14.05;;
41323;SDS011;27073;51.128;4.220;2023-04-24T02:22:30;15.43;;;13.80;;
41323;SDS011;27073;51.128;4.220;2023-04-24T02:24:56;15.85;;;14.25;;
41323;SDS011;27073;51.128;4.220;2023-04-24T02:27:21;14.35;;;12.95;;
41323;SDS011;27073;51.128;4.220;2023-04-24T02:29:47;15.30;;;13.77;;
41323;SDS011;27073;51.128;4.220;2023-04-24T02:32:13;15.27;;;13.57;;
41323;SDS011;27073;51.128;4.220;2023-04-24T02:34:42;16.33;;;13.77;;
41323;SDS011;27073;51.128;4.220;2023-04-24T02:37:08;18.58;;;15.02;;
41323;SDS011;27073;51.128;4.220;2023-04-24T02:39:35;16.83;;;14.73;;
41323;SDS011;27073;51.128;4.220;2023-04-24T02:42:01;16.02;;;14.10;;
41323;SDS011;27073;51.128;4.220;2023-04-24T02:44:26;15.27;;;13.77;;
41323;SDS011;27073;51.128;4.220;2023-04-24T02:46:52;14.90;;;13.45;;
41323;SDS011;27073;51.128;4.220;2023-04-24T02:49:18;16.73;;;15.13;;
41323;SDS011;27073;51.128;4.220;2023-04-24T02:51:44;15.65;;;14.05;;
41323;SDS011;27073;51.128;4.220;2023-04-24T02:54:09;16.58;;;14.93;;
41323;SDS011;27073;51.128;4.220;2023-04-24T02:56:36;16.67;;;14.98;;
41323;SDS011;27073;51.128;4.220;2023-04-24T02:59:03;16.48;;;14.88;;
41323;SDS011;27073;51.128;4.220;2023-04-24T03:01:29;14.80;;;13.30;;
41323;SDS011;27073;51.128;4.220;2023-04-24T03:03:55;17.52;;;15.75;;
41323;SDS011;27073;51.128;4.220;2023-04-24T03:06:21;17.60;;;15.88;;
41323;SDS011;27073;51.128;4.220;2023-04-24T03:08:47;16.83;;;14.80;;
41323;SDS011;27073;51.128;4.220;2023-04-24T03:11:14;18.52;;;16.73;;
41323;SDS011;27073;51.128;4.220;2023-04-24T03:13:40;16.88;;;15.18;;
41323;SDS011;27073;51.128;4.220;2023-04-24T03:16:06;15.85;;;14.23;;
41323;SDS011;27073;51.128;4.220;2023-04-24T03:18:32;19.35;;;17.45;;
41323;SDS011;27073;51.128;4.220;2023-04-24T03:20:57;20.50;;;18.13;;
41323;SDS011;27073;51.128;4.220;2023-04-24T03:23:23;21.10;;;18.83;;
41323;SDS011;27073;51.128;4.220;2023-04-24T03:25:49;18.77;;;16.67;;
41323;SDS011;27073;51.128;4.220;2023-04-24T03:28:18;18.30;;;13.98;;
41323;SDS011;27073;51.128;4.220;2023-04-24T03:30:51;16.38;;;13.85;;
41323;SDS011;27073;51.128;4.220;2023-04-24T03:33:18;17.52;;;13.73;;
41323;SDS011;27073;51.128;4.220;2023-04-24T03:35:54;16.75;;;12.95;;
41323;SDS011;27073;51.128;4.220;2023-04-24T03:38:20;12.50;;;9.15;;
41323;SDS011;27073;51.128;4.220;2023-04-24T03:40:59;12.43;;;7.15;;
41323;SDS011;27073;51.128;4.220;2023-04-24T03:43:42;10.60;;;5.75;;
41323;SDS011;27073;51.128;4.220;2023-04-24T03:46:09;8.90;;;5.72;;
41323;SDS011;27073;51.128;4.220;2023-04-24T03:48:38;7.93;;;4.95;;
41323;SDS011;27073;51.128;4.220;2023-04-24T03:51:06;6.20;;;5.22;;
41323;SDS011;27073;51.128;4.220;2023-04-24T03:53:33;7.88;;;5.07;;
41323;SDS011;27073;51.128;4.220;2023-04-24T03:55:59;9.23;;;5.05;;
41323;SDS011;27073;51.128;4.220;2023-04-24T03:58:26;7.28;;;5.38;;
41323;SDS011;27073;51.128;4.220;2023-04-24T04:00:53;9.45;;;4.82;;
41323;SDS011;27073;51.128;4.220;2023-04-24T04:03:41;8.82;;;5.22;;
41323;SDS011;27073;51.128;4.220;2023-04-24T04:06:07;8.13;;;6.50;;
41323;SDS011;27073;51.128;4.220;2023-04-24T04:08:32;10.68;;;6.05;;
41323;SDS011;27073;51.128;4.220;2023-04-24T04:10:58;11.15;;;6.82;;
41323;SDS011;27073;51.128;4.220;2023-04-24T04:13:24;12.85;;;8.05;;
41323;SDS011;27073;51.128;4.220;2023-04-24T04:15:50;8.30;;;6.80;;
41323;SDS011;27073;51.128;4.220;2023-04-24T04:18:16;11.63;;;7.28;;
41323;SDS011;27073;51.128;4.220;2023-04-24T04:20:42;8.65;;;6.75;;
41323;SDS011;27073;51.128;4.220;2023-04-24T04:23:10;11.25;;;8.02;;
41323;SDS011;27073;51.128;4.220;2023-04-24T04:25:49;11.02;;;7.72;;
41323;SDS011;27073;51.128;4.220;2023-04-24T04:28:19;17.33;;;12.73;;
41323;SDS011;27073;51.128;4.220;2023-04-24T04:30:45;18.55;;;12.82;;
41323;SDS011;27073;51.128;4.220;2023-04-24T04:33:12;20.77;;;12.27;;
41323;SDS011;27073;51.128;4.220;2023-04-24T04:35:40;18.38;;;14.02;;
41323;SDS011;27073;51.128;4.220;2023-04-24T04:38:06;21.45;;;14.35;;
41323;SDS011;27073;51.128;4.220;2023-04-24T04:40:43;18.58;;;14.02;;
41323;SDS011;27073;51.128;4.220;2023-04-24T04:43:11;19.67;;;14.00;;
41323;SDS011;27073;51.128;4.220;2023-04-24T04:45:43;19.85;;;15.00;;
41323;SDS011;27073;51.128;4.220;2023-04-24T04:48:28;19.33;;;14.73;;
41323;SDS011;27073;51.128;4.220;2023-04-24T04:50:58;20.80;;;15.07;;
41323;SDS011;27073;51.128;4.220;2023-04-24T04:53:25;20.27;;;14.13;;
41323;SDS011;27073;51.128;4.220;2023-04-24T04:55:51;20.23;;;15.18;;
41323;SDS011;27073;51.128;4.220;2023-04-24T04:58:18;15.98;;;12.98;;
41323;SDS011;27073;51.128;4.220;2023-04-24T05:00:47;26.00;;;13.55;;
41323;SDS011;27073;51.128;4.220;2023-04-24T05:03:23;15.35;;;10.90;;
41323;SDS011;27073;51.128;4.220;2023-04-24T05:05:57;18.80;;;12.52;;
41323;SDS011;27073;51.128;4.220;2023-04-24T05:08:23;20.58;;;12.45;;
41323;SDS011;27073;51.128;4.220;2023-04-24T05:10:49;20.52;;;12.95;;
41323;SDS011;27073;51.128;4.220;2023-04-24T05:13:15;19.08;;;12.05;;
41323;SDS011;27073;51.128;4.220;2023-04-24T05:15:41;18.85;;;11.80;;
41323;SDS011;27073;51.128;4.220;2023-04-24T05:18:06;22.02;;;13.45;;
41323;SDS011;27073;51.128;4.220;2023-04-24T05:20:33;22.55;;;11.68;;
41323;SDS011;27073;51.128;4.220;2023-04-24T05:22:58;16.70;;;11.23;;
41323;SDS011;27073;51.128;4.220;2023-04-24T05:25:26;21.55;;;12.50;;
41323;SDS011;27073;51.128;4.220;2023-04-24T05:27:58;21.95;;;12.85;;
41323;SDS011;27073;51.128;4.220;2023-04-24T05:30:24;16.83;;;11.95;;
41323;SDS011;27073;51.128;4.220;2023-04-24T05:32:50;22.15;;;11.48;;
41323;SDS011;27073;51.128;4.220;2023-04-24T05:35:16;22.17;;;14.38;;
41323;SDS011;27073;51.128;4.220;2023-04-24T05:37:42;19.55;;;12.88;;
41323;SDS011;27073;51.128;4.220;2023-04-24T05:40:09;17.80;;;11.73;;
41323;SDS011;27073;51.128;4.220;2023-04-24T05:42:35;17.55;;;13.98;;
41323;SDS011;27073;51.128;4.220;2023-04-24T05:45:01;17.85;;;12.70;;
41323;SDS011;27073;51.128;4.220;2023-04-24T05:47:27;23.25;;;14.70;;
41323;SDS011;27073;51.128;4.220;2023-04-24T05:49:53;20.42;;;14.48;;
41323;SDS011;27073;51.128;4.220;2023-04-24T05:52:19;20.40;;;13.48;;
41323;SDS011;27073;51.128;4.220;2023-04-24T05:54:46;26.08;;;15.38;;
41323;SDS011;27073;51.128;4.220;2023-04-24T05:57:17;17.45;;;14.93;;
41323;SDS011;27073;51.128;4.220;2023-04-24T05:59:50;26.38;;;16.52;;
41323;SDS011;27073;51.128;4.220;2023-04-24T06:02:17;29.73;;;20.20;;
41323;SDS011;27073;51.128;4.220;2023-04-24T06:04:43;41.15;;;24.33;;
41323;SDS011;27073;51.128;4.220;2023-04-24T06:07:12;49.20;;;29.40;;
41323;SDS011;27073;51.128;4.220;2023-04-24T06:12:06;43.28;;;29.88;;
41323;SDS011;27073;51.128;4.220;2023-04-24T06:14:46;46.42;;;29.67;;
41323;SDS011;27073;51.128;4.220;2023-04-24T06:17:22;48.90;;;28.38;;
41323;SDS011;27073;51.128;4.220;2023-04-24T06:19:49;48.42;;;29.77;;
41323;SDS011;27073;51.128;4.220;2023-04-24T06:22:15;46.20;;;30.27;;
41323;SDS011;27073;51.128;4.220;2023-04-24T06:24:40;58.00;;;31.23;;
41323;SDS011;27073;51.128;4.220;2023-04-24T06:27:06;48.65;;;30.00;;
41323;SDS011;27073;51.128;4.220;2023-04-24T06:29:33;55.65;;;33.90;;
41323;SDS011;27073;51.128;4.220;2023-04-24T06:31:59;49.85;;;30.00;;
41323;SDS011;27073;51.128;4.220;2023-04-24T06:34:25;54.40;;;32.25;;
41323;SDS011;27073;51.128;4.220;2023-04-24T06:36:50;47.10;;;27.40;;
41323;SDS011;27073;51.128;4.220;2023-04-24T06:39:16;39.75;;;25.30;;
41323;SDS011;27073;51.128;4.220;2023-04-24T06:41:42;34.97;;;22.00;;
41323;SDS011;27073;51.128;4.220;2023-04-24T06:44:17;30.42;;;16.17;;
41323;SDS011;27073;51.128;4.220;2023-04-24T06:46:43;25.65;;;15.88;;
41323;SDS011;27073;51.128;4.220;2023-04-24T06:49:09;24.27;;;12.50;;
41323;SDS011;27073;51.128;4.220;2023-04-24T06:51:34;21.92;;;10.35;;
41323;SDS011;27073;51.128;4.220;2023-04-24T06:54:00;15.93;;;9.32;;
41323;SDS011;27073;51.128;4.220;2023-04-24T06:56:26;16.80;;;8.32;;
41323;SDS011;27073;51.128;4.220;2023-04-24T06:58:54;12.68;;;5.00;;
41323;SDS011;27073;51.128;4.220;2023-04-24T07:01:20;15.02;;;6.97;;
41323;SDS011;27073;51.128;4.220;2023-04-24T07:03:46;16.80;;;6.97;;
41323;SDS011;27073;51.128;4.220;2023-04-24T07:06:11;12.75;;;6.45;;
41323;SDS011;27073;51.128;4.220;2023-04-24T07:08:37;9.77;;;4.85;;
41323;SDS011;27073;51.128;4.220;2023-04-24T07:11:03;11.77;;;6.07;;
41323;SDS011;27073;51.128;4.220;2023-04-24T07:13:29;17.25;;;5.70;;
41323;SDS011;27073;51.128;4.220;2023-04-24T07:15:55;13.35;;;5.68;;
41323;SDS011;27073;51.128;4.220;2023-04-24T07:18:21;14.65;;;6.55;;
41323;SDS011;27073;51.128;4.220;2023-04-24T07:20:47;16.77;;;6.47;;
41323;SDS011;27073;51.128;4.220;2023-04-24T07:23:15;16.08;;;6.07;;
41323;SDS011;27073;51.128;4.220;2023-04-24T07:25:41;13.55;;;5.55;;
41323;SDS011;27073;51.128;4.220;2023-04-24T07:28:07;11.38;;;5.20;;
41323;SDS011;27073;51.128;4.220;2023-04-24T07:30:33;15.85;;;6.22;;
41323;SDS011;27073;51.128;4.220;2023-04-24T07:32:59;14.73;;;4.82;;
41323;SDS011;27073;51.128;4.220;2023-04-24T07:35:28;11.05;;;4.78;;
41323;SDS011;27073;51.128;4.220;2023-04-24T07:37:54;21.63;;;5.40;;
41323;SDS011;27073;51.128;4.220;2023-04-24T07:40:20;13.98;;;5.85;;
41323;SDS011;27073;51.128;4.220;2023-04-24T07:42:46;15.55;;;6.03;;
41323;SDS011;27073;51.128;4.220;2023-04-24T07:45:13;15.73;;;5.40;;
41323;SDS011;27073;51.128;4.220;2023-04-24T07:47:41;17.50;;;5.72;;
41323;SDS011;27073;51.128;4.220;2023-04-24T07:50:09;14.27;;;4.75;;
41323;SDS011;27073;51.128;4.220;2023-04-24T07:52:35;17.58;;;6.53;;
41323;SDS011;27073;51.128;4.220;2023-04-24T07:55:01;20.70;;;7.78;;
41323;SDS011;27073;51.128;4.220;2023-04-24T07:57:27;19.67;;;7.53;;
41323;SDS011;27073;51.128;4.220;2023-04-24T07:59:53;17.75;;;8.05;;
41323;SDS011;27073;51.128;4.220;2023-04-24T08:02:19;19.33;;;7.45;;
41323;SDS011;27073;51.128;4.220;2023-04-24T08:04:46;17.98;;;7.20;;
41323;SDS011;27073;51.128;4.220;2023-04-24T08:07:12;13.95;;;5.95;;
41323;SDS011;27073;51.128;4.220;2023-04-24T08:09:38;20.50;;;7.18;;
41323;SDS011;27073;51.128;4.220;2023-04-24T08:12:04;18.55;;;5.70;;
41323;SDS011;27073;51.128;4.220;2023-04-24T08:14:29;22.17;;;5.03;;
41323;SDS011;27073;51.128;4.220;2023-04-24T08:16:55;20.88;;;5.40;;
41323;SDS011;27073;51.128;4.220;2023-04-24T08:19:21;13.48;;;4.82;;
41323;SDS011;27073;51.128;4.220;2023-04-24T08:21:47;15.10;;;5.00;;
41323;SDS011;27073;51.128;4.220;2023-04-24T08:24:13;17.58;;;4.43;;
41323;SDS011;27073;51.128;4.220;2023-04-24T08:26:39;14.43;;;4.63;;
41323;SDS011;27073;51.128;4.220;2023-04-24T08:29:05;12.63;;;4.18;;
41323;SDS011;27073;51.128;4.220;2023-04-24T08:31:31;14.82;;;4.35;;
41323;SDS011;27073;51.128;4.220;2023-04-24T08:33:57;17.80;;;5.03;;
41323;SDS011;27073;51.128;4.220;2023-04-24T08:36:25;15.10;;;4.70;;
41323;SDS011;27073;51.128;4.220;2023-04-24T08:38:51;14.38;;;4.15;;
41323;SDS011;27073;51.128;4.220;2023-04-24T08:41:17;15.38;;;5.15;;
41323;SDS011;27073;51.128;4.220;2023-04-24T08:43:45;10.93;;;4.20;;
41323;SDS011;27073;51.128;4.220;2023-04-24T08:46:12;15.13;;;4.88;;
41323;SDS011;27073;51.128;4.220;2023-04-24T08:48:38;15.02;;;4.90;;
41323;SDS011;27073;51.128;4.220;2023-04-24T08:51:06;14.77;;;4.68;;
41323;SDS011;27073;51.128;4.220;2023-04-24T08:53:33;18.23;;;5.40;;
41323;SDS011;27073;51.128;4.220;2023-04-24T08:56:00;23.80;;;5.88;;
41323;SDS011;27073;51.128;4.220;2023-04-24T08:58:27;15.95;;;6.47;;
41323;SDS011;27073;51.128;4.220;2023-04-24T09:00:57;14.23;;;6.00;;
41323;SDS011;27073;51.128;4.220;2023-04-24T09:03:23;16.77;;;5.20;;
41323;SDS011;27073;51.128;4.220;2023-04-24T09:05:52;16.75;;;5.53;;
41323;SDS011;27073;51.128;4.220;2023-04-24T09:08:19;14.02;;;5.00;;
41323;SDS011;27073;51.128;4.220;2023-04-24T09:10:48;14.00;;;5.38;;
41323;SDS011;27073;51.128;4.220;2023-04-24T09:13:14;11.02;;;4.75;;
41323;SDS011;27073;51.128;4.220;2023-04-24T09:15:40;14.82;;;4.82;;
41323;SDS011;27073;51.128;4.220;2023-04-24T09:18:07;11.52;;;4.20;;
41323;SDS011;27073;51.128;4.220;2023-04-24T09:20:33;12.15;;;3.72;;
41323;SDS011;27073;51.128;4.220;2023-04-24T09:23:01;11.82;;;3.33;;
41323;SDS011;27073;51.128;4.220;2023-04-24T09:25:30;12.15;;;3.80;;
41323;SDS011;27073;51.128;4.220;2023-04-24T09:30:25;10.27;;;3.63;;
41323;SDS011;27073;51.128;4.220;2023-04-24T09:33:09;11.65;;;3.67;;
41323;SDS011;27073;51.128;4.220;2023-04-24T09:35:50;8.70;;;3.37;;
41323;SDS011;27073;51.128;4.220;2023-04-24T09:38:17;10.43;;;3.28;;
41323;SDS011;27073;51.128;4.220;2023-04-24T09:40:43;12.57;;;4.32;;
41323;SDS011;27073;51.128;4.220;2023-04-24T09:43:10;8.93;;;3.00;;
41323;SDS011;27073;51.128;4.220;2023-04-24T09:45:37;7.30;;;2.95;;
41323;SDS011;27073;51.128;4.220;2023-04-24T09:48:04;6.60;;;2.65;;
41323;SDS011;27073;51.128;4.220;2023-04-24T09:50:31;13.02;;;3.28;;
41323;SDS011;27073;51.128;4.220;2023-04-24T09:53:01;8.10;;;2.30;;
41323;SDS011;27073;51.128;4.220;2023-04-24T09:55:28;8.43;;;2.97;;
41323;SDS011;27073;51.128;4.220;2023-04-24T09:57:57;7.78;;;2.58;;
41323;SDS011;27073;51.128;4.220;2023-04-24T10:00:29;9.73;;;2.60;;
41323;SDS011;27073;51.128;4.220;2023-04-24T10:02:56;7.93;;;3.15;;
41323;SDS011;27073;51.128;4.220;2023-04-24T10:05:29;11.02;;;3.33;;
41323;SDS011;27073;51.128;4.220;2023-04-24T10:07:57;10.82;;;2.90;;
41323;SDS011;27073;51.128;4.220;2023-04-24T10:10:25;10.45;;;2.55;;
41323;SDS011;27073;51.128;4.220;2023-04-24T10:12:51;5.07;;;2.70;;
41323;SDS011;27073;51.128;4.220;2023-04-24T10:15:18;7.75;;;2.38;;
41323;SDS011;27073;51.128;4.220;2023-04-24T10:17:49;7.85;;;2.67;;
41323;SDS011;27073;51.128;4.220;2023-04-24T10:20:22;8.70;;;2.42;;
41323;SDS011;27073;51.128;4.220;2023-04-24T10:22:50;7.40;;;2.60;;
41323;SDS011;27073;51.128;4.220;2023-04-24T10:25:21;11.43;;;3.05;;
41323;SDS011;27073;51.128;4.220;2023-04-24T10:27:50;8.45;;;2.90;;
41323;SDS011;27073;51.128;4.220;2023-04-24T10:30:17;8.73;;;3.05;;
41323;SDS011;27073;51.128;4.220;2023-04-24T10:32:44;9.20;;;3.03;;
41323;SDS011;27073;51.128;4.220;2023-04-24T10:35:12;12.95;;;3.75;;
41323;SDS011;27073;51.128;4.220;2023-04-24T10:37:45;6.68;;;3.78;;
41323;SDS011;27073;51.128;4.220;2023-04-24T10:40:17;16.00;;;3.78;;
41323;SDS011;27073;51.128;4.220;2023-04-24T10:42:46;6.90;;;2.95;;
41323;SDS011;27073;51.128;4.220;2023-04-24T10:45:17;10.20;;;3.65;;
41323;SDS011;27073;51.128;4.220;2023-04-24T10:47:51;12.27;;;3.28;;
41323;SDS011;27073;51.128;4.220;2023-04-24T10:50:42;7.22;;;2.45;;
41323;SDS011;27073;51.128;4.220;2023-04-24T10:53:14;14.52;;;3.72;;
41323;SDS011;27073;51.128;4.220;2023-04-24T10:56:05;9.25;;;2.80;;
41323;SDS011;27073;51.128;4.220;2023-04-24T10:58:40;9.10;;;2.35;;
41323;SDS011;27073;51.128;4.220;2023-04-24T11:01:22;13.98;;;3.08;;
41323;SDS011;27073;51.128;4.220;2023-04-24T11:03:59;10.93;;;3.08;;
41323;SDS011;27073;51.128;4.220;2023-04-24T11:09:06;8.68;;;2.67;;
41323;SDS011;27073;51.128;4.220;2023-04-24T11:11:34;8.88;;;2.58;;
41323;SDS011;27073;51.128;4.220;2023-04-24T11:14:03;10.88;;;2.67;;
41323;SDS011;27073;51.128;4.220;2023-04-24T11:16:38;7.18;;;2.97;;
41323;SDS011;27073;51.128;4.220;2023-04-24T11:21:44;9.88;;;4.25;;
41323;SDS011;27073;51.128;4.220;2023-04-24T11:27:18;14.32;;;3.72;;
41323;SDS011;27073;51.128;4.220;2023-04-24T11:34:59;8.00;;;2.13;;
41323;SDS011;27073;51.128;4.220;2023-04-24T11:37:40;9.30;;;2.78;;
41323;SDS011;27073;51.128;4.220;2023-04-24T11:40:08;5.00;;;2.10;;
41323;SDS011;27073;51.128;4.220;2023-04-24T11:42:44;9.38;;;2.83;;
41323;SDS011;27073;51.128;4.220;2023-04-24T11:45:15;6.72;;;2.20;;
41323;SDS011;27073;51.128;4.220;2023-04-24T11:47:51;9.82;;;3.03;;
41323;SDS011;27073;51.128;4.220;2023-04-24T11:50:18;6.93;;;3.92;;
41323;SDS011;27073;51.128;4.220;2023-04-24T11:52:46;10.38;;;4.55;;
41323;SDS011;27073;51.128;4.220;2023-04-24T11:57:39;16.38;;;5.63;;
41323;SDS011;27073;51.128;4.220;2023-04-24T12:00:14;9.27;;;4.10;;
41323;SDS011;27073;51.128;4.220;2023-04-24T12:02:41;8.63;;;2.90;;
41323;SDS011;27073;51.128;4.220;2023-04-24T12:05:07;5.18;;;2.22;;
41323;SDS011;27073;51.128;4.220;2023-04-24T12:07:40;6.38;;;2.00;;
41323;SDS011;27073;51.128;4.220;2023-04-24T12:10:09;10.00;;;2.17;;
41323;SDS011;27073;51.128;4.220;2023-04-24T12:12:35;9.90;;;2.90;;
41323;SDS011;27073;51.128;4.220;2023-04-24T12:15:01;7.57;;;2.40;;
41323;SDS011;27073;51.128;4.220;2023-04-24T12:20:02;5.93;;;2.28;;
41323;SDS011;27073;51.128;4.220;2023-04-24T12:25:17;6.03;;;2.38;;
41323;SDS011;27073;51.128;4.220;2023-04-24T12:27:44;6.18;;;2.25;;
41323;SDS011;27073;51.128;4.220;2023-04-24T12:30:12;5.28;;;1.90;;
41323;SDS011;27073;51.128;4.220;2023-04-24T12:32:46;5.35;;;1.67;;
41323;SDS011;27073;51.128;4.220;2023-04-24T12:35:13;3.55;;;1.80;;
41323;SDS011;27073;51.128;4.220;2023-04-24T12:37:43;5.47;;;2.08;;
41323;SDS011;27073;51.128;4.220;2023-04-24T12:40:09;5.25;;;1.60;;
41323;SDS011;27073;51.128;4.220;2023-04-24T12:42:43;6.40;;;1.83;;
41323;SDS011;27073;51.128;4.220;2023-04-24T12:45:11;4.47;;;1.23;;
41323;SDS011;27073;51.128;4.220;2023-04-24T12:47:38;5.30;;;1.63;;
41323;SDS011;27073;51.128;4.220;2023-04-24T12:50:05;8.20;;;1.88;;
41323;SDS011;27073;51.128;4.220;2023-04-24T12:52:35;8.02;;;2.00;;
41323;SDS011;27073;51.128;4.220;2023-04-24T12:55:01;7.05;;;1.80;;
41323;SDS011;27073;51.128;4.220;2023-04-24T12:57:28;6.78;;;2.05;;
41323;SDS011;27073;51.128;4.220;2023-04-24T12:59:55;5.35;;;1.65;;
41323;SDS011;27073;51.128;4.220;2023-04-24T13:02:22;3.20;;;1.33;;
41323;SDS011;27073;51.128;4.220;2023-04-24T13:04:49;5.40;;;1.50;;
41323;SDS011;27073;51.128;4.220;2023-04-24T13:07:15;5.60;;;1.88;;
41323;SDS011;27073;51.128;4.220;2023-04-24T13:09:42;5.38;;;1.80;;
41323;SDS011;27073;51.128;4.220;2023-04-24T13:12:08;7.05;;;1.65;;
41323;SDS011;27073;51.128;4.220;2023-04-24T13:14:35;6.72;;;1.70;;
41323;SDS011;27073;51.128;4.220;2023-04-24T13:17:02;4.30;;;1.73;;
41323;SDS011;27073;51.128;4.220;2023-04-24T13:19:28;8.45;;;2.13;;
41323;SDS011;27073;51.128;4.220;2023-04-24T13:21:55;3.70;;;1.58;;
41323;SDS011;27073;51.128;4.220;2023-04-24T13:24:25;5.30;;;1.40;;
41323;SDS011;27073;51.128;4.220;2023-04-24T13:26:51;3.17;;;1.02;;
41323;SDS011;27073;51.128;4.220;2023-04-24T13:29:17;3.72;;;1.20;;
41323;SDS011;27073;51.128;4.220;2023-04-24T13:31:43;2.05;;;0.68;;
41323;SDS011;27073;51.128;4.220;2023-04-24T13:34:10;3.90;;;0.98;;
41323;SDS011;27073;51.128;4.220;2023-04-24T13:36:35;6.78;;;1.25;;
41323;SDS011;27073;51.128;4.220;2023-04-24T13:39:01;8.13;;;1.05;;
41323;SDS011;27073;51.128;4.220;2023-04-24T13:41:29;3.13;;;0.90;;
41323;SDS011;27073;51.128;4.220;2023-04-24T13:43:55;2.38;;;1.20;;
41323;SDS011;27073;51.128;4.220;2023-04-24T13:46:21;7.03;;;1.50;;
41323;SDS011;27073;51.128;4.220;2023-04-24T13:48:47;2.55;;;0.82;;
41323;SDS011;27073;51.128;4.220;2023-04-24T13:51:13;3.08;;;1.02;;
41323;SDS011;27073;51.128;4.220;2023-04-24T13:53:38;8.30;;;1.05;;
41323;SDS011;27073;51.128;4.220;2023-04-24T13:56:04;3.38;;;0.90;;
41323;SDS011;27073;51.128;4.220;2023-04-24T13:58:31;4.80;;;1.00;;
41323;SDS011;27073;51.128;4.220;2023-04-24T14:00:57;3.00;;;1.00;;
41323;SDS011;27073;51.128;4.220;2023-04-24T14:03:23;4.70;;;1.15;;
41323;SDS011;27073;51.128;4.220;2023-04-24T14:05:49;2.63;;;1.00;;
41323;SDS011;27073;51.128;4.220;2023-04-24T14:08:15;4.40;;;1.10;;
41323;SDS011;27073;51.128;4.220;2023-04-24T14:10:40;1.98;;;0.75;;
41323;SDS011;27073;51.128;4.220;2023-04-24T14:13:07;3.17;;;0.77;;
41323;SDS011;27073;51.128;4.220;2023-04-24T14:15:35;2.25;;;0.60;;
41323;SDS011;27073;51.128;4.220;2023-04-24T14:18:01;3.60;;;1.17;;
41323;SDS011;27073;51.128;4.220;2023-04-24T14:20:27;3.95;;;0.82;;
41323;SDS011;27073;51.128;4.220;2023-04-24T14:22:52;2.13;;;1.00;;
41323;SDS011;27073;51.128;4.220;2023-04-24T14:25:18;3.88;;;1.20;;
41323;SDS011;27073;51.128;4.220;2023-04-24T14:27:44;7.05;;;1.48;;
41323;SDS011;27073;51.128;4.220;2023-04-24T14:30:10;4.28;;;1.33;;
41323;SDS011;27073;51.128;4.220;2023-04-24T14:32:38;2.33;;;0.60;;
41323;SDS011;27073;51.128;4.220;2023-04-24T14:35:04;5.05;;;1.15;;
41323;SDS011;27073;51.128;4.220;2023-04-24T14:37:31;2.72;;;1.23;;
41323;SDS011;27073;51.128;4.220;2023-04-24T14:39:57;4.80;;;1.20;;
41323;SDS011;27073;51.128;4.220;2023-04-24T14:42:23;5.03;;;0.90;;
41323;SDS011;27073;51.128;4.220;2023-04-24T14:44:49;3.05;;;0.80;;
41323;SDS011;27073;51.128;4.220;2023-04-24T14:47:15;2.30;;;0.80;;
41323;SDS011;27073;51.128;4.220;2023-04-24T14:49:42;4.15;;;1.13;;
41323;SDS011;27073;51.128;4.220;2023-04-24T14:52:09;4.43;;;1.02;;
41323;SDS011;27073;51.128;4.220;2023-04-24T14:54:36;5.68;;;1.30;;
41323;SDS011;27073;51.128;4.220;2023-04-24T14:57:01;4.50;;;0.80;;
41323;SDS011;27073;51.128;4.220;2023-04-24T14:59:27;4.25;;;1.17;;
41323;SDS011;27073;51.128;4.220;2023-04-24T15:01:54;3.83;;;0.90;;
41323;SDS011;27073;51.128;4.220;2023-04-24T15:04:26;4.97;;;1.10;;